Prospect Creek, Prospect Cree, AK

2:49 AM AKDT on August 20, 2014 (GMT -0800)
Bettles | Change Station
CLOSE
Current Station
Airport
Location: Bettles,
Elevation: 643 ft
Nearby Weather Stations

Elev 643 ft 66.91 °N, 151.53 °W | Updated 56 minutes ago

Partly Cloudy
Partly Cloudy
42 °F
Feels Like 40 °F
N
4
Wind Variable Wind from ESE

Today
High -- | Low -- °F
--% Chance of Precip.
Yesterday
High -- | Low -- °F
Precip. -- in
5:52 AM 10:16 PM
Waning Crescent, 22% visible
Pressure 30.02 in
Visibility 10.0 miles
Clouds Few 6000 ft
Few 21000 ft
Windchill 40 °F
Dew Point 40 °F
Humidity 92%
Rainfall 0.00 in
Snow Depth Not available.
UV 0 out of 12
Pollen Not available.
Air Quality Not available.
Flu Activity Not available.
METAR PABT 200953Z 12003KT 10SM FEW060 FEW210 06/04 A2999 RMK AO2 SLP165 T00560044

More Conditions Fewer Conditions

Pressure 30.02 in
Visibility 10.0 miles
Clouds Few 6000 ft
Few 21000 ft
Windchill 40 °F
Dew Point 40 °F
Humidity 92%
Rainfall 0.00 in
Snow Depth Not available.
UV 0 out of 12
Pollen Not available.
Air Quality Not available.
Flu Activity Not available.
METAR PABT 200953Z 12003KT 10SM FEW060 FEW210 06/04 A2999 RMK AO2 SLP165 T00560044

More Conditions Fewer Conditions

10-Day Weather Forecast

Almanac

Astronomy

Aug. 20, 2014 Rise Set
Actual Time 5:52 AM AKDT 10:16 PM AKDT
Civil Twilight 4:39 AM AKDT 11:27 PM AKDT
Nautical Twilight 2:38 AM AKDT 1:33 AM AKDT
Astronomical Twilight Sun does not rise Sun does not rise
Moon 12:41 AM AKDT 8:02 PM AKDT
Length of Visible Light 18h 48m
Length of Day
16h 23m
Tomorrow will be 7m 45s shorter.
Waning Crescent, 22% of the Moon is Illuminated
Today
Waning Crescent
Aug 25
New
Sep 2
First Quarter
Sep 8
Full
Sep 15
Last Quarter

Today's Extremes

State Highs State Lows

Community

WunderPhotos

Upload Photos

1,745,605 photos uploaded!

Nearby

Snow Depth

Station Depth Elevation
Coldfoot 0 in 1040 ft
Fort Yukon 2 in 430 ft
Eagle Summit 1 in 3650 ft
Monument Creek 0 in 1850 ft
Munson Ridge 1 in 3100 ft

Earthquake Activity

City Distance Mag. Time & Date
No recent earthquake activity has been reported nearby.
Minimum magnitude displayed is 2.5.

Coastal Water Temperatures

Place Temperature
No Stations Reporting

Nearby Weather Stations